Terminal Aerodrome Forecast
Issued by NWS Charleston, WV

Current Version | Previous Version | Text Only | Print | Product List | Glossary Off
Versions: 1 2 3 4 5 6 7 8 9 10 11 12 13 14 15 16 17 18 19 20 21

000
FTUS41 KRLX 230800 AAA
TAFEKN
TAF AMD
KEKN 230857Z 2309/2406 00000KT P6SM FEW070
     FM232100 15013G23KT P6SM BKN080
     FM240200 14016G27KT 2SM -RA BR BKN080
     FM240500 15014G21KT 3SM -RA BR BKN060=

USA.gov is the U.S. government's official web portal to all federal, state and local government web resources and services.